createdAt,value
2018-01-18T00:00:12.130Z,91.95
2018-01-18T00:02:47.425Z,91.95
2018-01-18T00:05:22.246Z,91.99
2018-01-18T00:07:57.439Z,91.92
2018-01-18T00:10:32.451Z,91.96
2018-01-18T00:13:07.082Z,91.93
2018-01-18T00:15:41.753Z,91.92
2018-01-18T00:18:16.673Z,92.06
2018-01-18T00:20:51.688Z,92.07
2018-01-18T00:23:26.234Z,91.93
2018-01-18T00:26:01.310Z,91.86
2018-01-18T00:28:36.207Z,91.77
2018-01-18T00:31:10.917Z,91.52
2018-01-18T00:33:45.731Z,91.28
2018-01-18T00:36:20.534Z,91.43
2018-01-18T00:38:55.461Z,91.54
2018-01-18T00:41:30.313Z,91.45
2018-01-18T00:44:05.306Z,91.44
2018-01-18T00:46:40.371Z,91.49
2018-01-18T00:49:15.242Z,91.75
2018-01-18T00:51:50.423Z,91.68
2018-01-18T00:54:25.399Z,91.79
2018-01-18T00:57:00.710Z,92.05
2018-01-18T00:59:36.265Z,91.91
2018-01-18T01:02:11.296Z,91.95
2018-01-18T01:04:46.274Z,91.99
2018-01-18T01:07:21.126Z,92.14
2018-01-18T01:09:55.761Z,91.91
2018-01-18T01:12:31.206Z,91.80
2018-01-18T01:15:06.326Z,91.70
2018-01-18T01:17:41.359Z,91.54
2018-01-18T01:20:16.266Z,91.61
2018-01-18T01:22:51.225Z,91.74
2018-01-18T01:25:26.266Z,91.81
2018-01-18T01:28:01.294Z,91.93
2018-01-18T01:30:36.390Z,91.99
2018-01-18T01:33:11.461Z,91.95
2018-01-18T01:35:46.678Z,91.95
2018-01-18T01:38:21.406Z,91.86
2018-01-18T01:40:56.557Z,91.74
2018-01-18T01:43:31.329Z,91.53
2018-01-18T01:46:06.475Z,91.49
2018-01-18T01:48:41.478Z,91.40
2018-01-18T01:51:16.330Z,91.34
2018-01-18T01:53:51.689Z,91.28
2018-01-18T01:56:27.353Z,91.14
2018-01-18T01:59:02.051Z,91.27
2018-01-18T02:01:36.884Z,91.39
2018-01-18T02:04:11.677Z,91.50
2018-01-18T02:06:46.730Z,91.64
2018-01-18T02:09:21.470Z,91.84
2018-01-18T02:11:56.650Z,91.68
2018-01-18T02:14:31.467Z,91.93
2018-01-18T02:17:06.450Z,92.03
2018-01-18T02:19:41.217Z,92.01
2018-01-18T02:22:16.097Z,92.04
2018-01-18T02:24:51.050Z,92.15
2018-01-18T02:27:25.992Z,92.13
2018-01-18T02:30:01.455Z,92.09
2018-01-18T02:32:36.646Z,92.14
2018-01-18T02:35:11.619Z,91.87
2018-01-18T02:37:46.586Z,91.91
2018-01-18T02:40:21.526Z,91.75
2018-01-18T02:42:56.742Z,91.63
2018-01-18T02:45:31.604Z,91.75
2018-01-18T02:48:06.686Z,91.67
2018-01-18T02:50:41.586Z,91.50
2018-01-18T02:53:16.739Z,91.34
2018-01-18T02:55:51.835Z,91.23
2018-01-18T02:58:26.847Z,91.16
2018-01-18T03:01:01.842Z,91.05
2018-01-18T03:03:36.749Z,91.10
2018-01-18T03:06:11.616Z,90.97
2018-01-18T03:08:46.581Z,90.89
2018-01-18T03:11:21.666Z,90.73
2018-01-18T03:13:56.669Z,90.82
2018-01-18T03:16:31.221Z,90.59
2018-01-18T03:19:06.934Z,90.55
2018-01-18T03:21:42.187Z,90.50
2018-01-18T03:24:17.077Z,90.30
2018-01-18T03:26:52.109Z,90.20
2018-01-18T03:29:27.518Z,90.25
2018-01-18T03:32:02.607Z,90.15
2018-01-18T03:34:37.845Z,90.12
2018-01-18T03:37:12.521Z,90.44
2018-01-18T03:39:47.970Z,90.36
2018-01-18T03:42:23.043Z,90.33
2018-01-18T03:44:58.072Z,90.45
2018-01-18T03:47:33.223Z,90.30
2018-01-18T03:50:08.041Z,90.20
2018-01-18T03:52:44.180Z,90.31
2018-01-18T03:55:19.649Z,90.35
2018-01-18T03:57:54.911Z,90.29
2018-01-18T04:00:29.806Z,90.33
2018-01-18T04:03:05.183Z,90.23
2018-01-18T04:05:40.790Z,90.26
2018-01-18T04:08:15.633Z,90.50
2018-01-18T04:10:50.295Z,90.45
2018-01-18T04:13:25.667Z,90.49
2018-01-18T04:16:00.922Z,90.34
2018-01-18T04:18:35.165Z,90.54
2018-01-18T04:21:10.287Z,90.48
2018-01-18T04:23:45.318Z,90.45
2018-01-18T04:26:20.294Z,90.55
2018-01-18T04:28:55.882Z,90.60
2018-01-18T04:31:30.750Z,90.91
2018-01-18T04:34:05.937Z,91.08
2018-01-18T04:36:40.720Z,91.12
2018-01-18T04:39:16.027Z,91.01
2018-01-18T04:41:50.902Z,91.24
2018-01-18T04:44:26.192Z,91.47
2018-01-18T04:47:01.002Z,91.26
2018-01-18T04:49:36.202Z,91.48
2018-01-18T04:52:11.191Z,91.61
2018-01-18T04:54:46.367Z,91.56
2018-01-18T04:57:21.510Z,91.62
2018-01-18T04:59:56.234Z,91.87
2018-01-18T05:02:31.448Z,91.99
2018-01-18T05:05:06.449Z,92.62
2018-01-18T05:07:41.843Z,93.11
2018-01-18T05:10:16.928Z,94.00
2018-01-18T05:12:52.013Z,94.49
2018-01-18T05:15:26.979Z,94.71
2018-01-18T05:18:02.103Z,95.42
2018-01-18T05:20:37.063Z,95.96
2018-01-18T05:23:11.873Z,96.21
2018-01-18T05:25:46.950Z,96.42
2018-01-18T05:28:22.019Z,96.73
2018-01-18T05:30:56.662Z,97.18
2018-01-18T05:33:31.610Z,97.17
2018-01-18T05:36:06.475Z,97.26
2018-01-18T05:38:41.292Z,97.18
2018-01-18T05:41:16.343Z,97.24
2018-01-18T05:43:51.374Z,97.31
2018-01-18T05:46:26.187Z,97.47
2018-01-18T05:49:01.011Z,97.53
2018-01-18T05:51:36.131Z,97.39
2018-01-18T05:54:10.599Z,97.12
2018-01-18T05:56:45.198Z,97.12
2018-01-18T05:59:20.054Z,97.08
2018-01-18T06:01:55.217Z,97.55
2018-01-18T06:04:30.195Z,97.74
2018-01-18T06:07:05.223Z,97.97
2018-01-18T06:09:40.198Z,98.32
2018-01-18T06:12:15.211Z,98.48
2018-01-18T06:14:50.459Z,98.87
2018-01-18T06:17:25.180Z,99.11
2018-01-18T06:20:00.478Z,99.07
2018-01-18T06:22:35.426Z,99.47
2018-01-18T06:25:11.086Z,99.76
2018-01-18T06:27:45.719Z,99.56
2018-01-18T06:30:21.191Z,99.54
2018-01-18T06:32:56.178Z,99.54
2018-01-18T06:35:31.334Z,99.56
2018-01-18T06:38:06.346Z,99.65
2018-01-18T06:40:41.326Z,99.70
2018-01-18T06:43:16.322Z,99.87
2018-01-18T06:45:51.267Z,99.82
2018-01-18T06:48:26.323Z,100.00
2018-01-18T06:51:01.273Z,100.00
2018-01-18T06:53:36.257Z,100.00
2018-01-18T06:56:11.060Z,100.00
2018-01-18T06:58:46.335Z,100.00
2018-01-18T07:01:21.207Z,100.00
2018-01-18T07:03:56.258Z,100.00
2018-01-18T07:06:32.151Z,100.00
2018-01-18T07:09:07.355Z,100.00
2018-01-18T07:11:42.392Z,100.00
2018-01-18T07:14:17.554Z,100.00
2018-01-18T07:16:52.050Z,100.00
2018-01-18T07:19:27.398Z,100.00
2018-01-18T07:22:02.363Z,100.00
2018-01-18T07:24:37.734Z,100.00
2018-01-18T07:27:12.682Z,100.00
2018-01-18T07:29:47.603Z,100.00
2018-01-18T07:32:22.697Z,100.00
2018-01-18T07:34:57.896Z,100.00
2018-01-18T07:37:32.437Z,100.00
2018-01-18T07:40:07.378Z,100.00
2018-01-18T07:42:42.146Z,100.00
2018-01-18T07:45:17.451Z,100.00
2018-01-18T07:47:52.618Z,100.00
2018-01-18T07:50:27.598Z,100.00
2018-01-18T07:53:02.723Z,100.00
2018-01-18T07:55:37.703Z,100.00
2018-01-18T07:58:12.630Z,100.00
2018-01-18T08:00:47.459Z,100.00
2018-01-18T08:03:27.728Z,99.98
2018-01-18T08:06:02.450Z,100.00
2018-01-18T08:08:37.079Z,100.00
2018-01-18T08:11:11.964Z,100.00
2018-01-18T08:13:46.791Z,100.00
2018-01-18T08:16:21.670Z,100.00
2018-01-18T08:18:56.686Z,99.73
2018-01-18T08:21:31.607Z,99.54
2018-01-18T08:24:06.579Z,99.56
2018-01-18T08:26:41.510Z,99.44
2018-01-18T08:29:16.581Z,99.39
2018-01-18T08:31:51.715Z,99.45
2018-01-18T08:34:26.494Z,99.67
2018-01-18T08:37:02.019Z,99.98
2018-01-18T08:39:36.786Z,100.00
2018-01-18T08:42:11.840Z,100.00
2018-01-18T08:44:47.019Z,100.00
2018-01-18T08:47:21.988Z,100.00
2018-01-18T08:49:56.999Z,99.88
2018-01-18T08:52:32.574Z,99.65
2018-01-18T08:55:07.488Z,99.33
2018-01-18T08:57:42.577Z,98.95
2018-01-18T09:00:17.554Z,98.70
2018-01-18T09:02:52.773Z,98.57
2018-01-18T09:05:27.942Z,98.37
2018-01-18T09:08:03.455Z,97.77
2018-01-18T09:10:37.690Z,97.39
2018-01-18T09:13:12.938Z,96.77
2018-01-18T09:18:45.916Z,95.54
2018-01-18T09:21:20.637Z,94.89
2018-01-18T09:23:55.640Z,94.23
2018-01-18T09:26:30.628Z,93.49
2018-01-18T09:29:05.211Z,92.33
2018-01-18T09:31:40.097Z,92.69
2018-01-18T09:34:15.072Z,92.22
2018-01-18T09:36:50.148Z,91.70
2018-01-18T09:39:24.711Z,90.90
2018-01-18T09:41:59.992Z,90.33
2018-01-18T09:44:35.132Z,90.11
2018-01-18T09:47:10.137Z,89.30
2018-01-18T09:49:45.144Z,89.55
2018-01-18T09:52:20.112Z,88.10
2018-01-18T09:54:54.904Z,87.11
2018-01-18T09:57:30.101Z,87.38
2018-01-18T10:00:05.260Z,87.88
2018-01-18T10:02:40.280Z,87.58
2018-01-18T10:05:15.045Z,86.29
2018-01-18T10:07:50.604Z,86.14
2018-01-18T10:13:22.951Z,81.01
2018-01-18T10:15:58.022Z,77.03
2018-01-18T10:18:32.995Z,75.72
2018-01-18T10:21:08.132Z,75.74
2018-01-18T10:23:42.763Z,74.01
2018-01-18T10:26:17.262Z,72.37
2018-01-18T10:28:52.417Z,74.56
2018-01-18T10:31:27.310Z,74.17
2018-01-18T10:34:02.232Z,74.93
2018-01-18T10:36:37.139Z,74.50
2018-01-18T10:39:11.502Z,71.65
2018-01-18T10:41:46.002Z,71.25
2018-01-18T10:44:20.910Z,70.23
2018-01-18T10:46:55.994Z,69.61
2018-01-18T10:49:30.854Z,70.18
2018-01-18T10:52:06.018Z,69.76
2018-01-18T10:54:41.145Z,69.53
2018-01-18T10:57:16.189Z,70.37
2018-01-18T10:59:51.003Z,70.63
2018-01-18T11:02:25.859Z,71.91
2018-01-18T11:05:00.923Z,72.31
2018-01-18T11:07:36.079Z,71.38
2018-01-18T11:10:10.954Z,71.75
2018-01-18T11:12:45.550Z,73.03
2018-01-18T11:15:21.001Z,75.70
2018-01-18T11:17:56.406Z,77.91
2018-01-18T11:20:31.278Z,79.09
2018-01-18T11:23:06.127Z,81.41
2018-01-18T11:25:41.043Z,82.76
2018-01-18T11:28:16.067Z,84.82
2018-01-18T11:30:50.679Z,86.38
2018-01-18T11:33:25.922Z,88.15
2018-01-18T11:36:00.402Z,89.50
2018-01-18T11:38:35.362Z,91.07
2018-01-18T11:41:10.134Z,92.50
2018-01-18T11:43:45.409Z,93.71
2018-01-18T11:46:20.153Z,94.34
2018-01-18T11:48:55.167Z,94.76
2018-01-18T11:51:29.998Z,95.47
2018-01-18T11:54:04.979Z,96.06
2018-01-18T11:56:40.063Z,96.59
2018-01-18T11:59:15.142Z,96.80
2018-01-18T12:01:49.998Z,96.73
2018-01-18T12:04:25.147Z,96.74
2018-01-18T12:07:00.377Z,96.94
2018-01-18T12:09:35.194Z,97.22
2018-01-18T12:12:10.427Z,97.55
2018-01-18T12:14:46.399Z,97.77
2018-01-18T12:17:21.134Z,97.88
2018-01-18T12:19:56.006Z,97.68
2018-01-18T12:22:30.926Z,97.14
2018-01-18T12:25:05.286Z,96.23
2018-01-18T12:27:40.542Z,95.69
2018-01-18T12:30:15.554Z,94.35
2018-01-18T12:32:50.588Z,93.37
2018-01-18T12:35:25.462Z,91.87
2018-01-18T12:38:01.204Z,92.10
2018-01-18T12:40:36.046Z,92.12
2018-01-18T12:43:10.711Z,92.65
2018-01-18T12:45:45.962Z,92.98
2018-01-18T12:48:20.766Z,92.08
2018-01-18T12:50:55.578Z,92.27
2018-01-18T12:53:30.648Z,91.90
2018-01-18T12:56:05.536Z,91.59
2018-01-18T12:58:40.485Z,90.99
2018-01-18T13:01:15.277Z,90.01
2018-01-18T13:03:50.402Z,89.84
2018-01-18T13:06:25.238Z,89.27
2018-01-18T13:09:00.437Z,90.21
2018-01-18T13:11:35.190Z,90.24
2018-01-18T13:14:10.377Z,90.08
2018-01-18T13:16:45.714Z,89.65
2018-01-18T13:19:20.750Z,88.75
2018-01-18T13:21:55.420Z,87.58
2018-01-18T13:24:30.263Z,87.68
2018-01-18T13:27:05.270Z,87.98
2018-01-18T13:29:40.343Z,87.98
2018-01-18T13:32:15.472Z,87.81
2018-01-18T13:34:50.350Z,87.22
2018-01-18T13:37:25.367Z,87.19
2018-01-18T13:40:00.567Z,87.12
2018-01-18T13:42:35.742Z,87.02
2018-01-18T13:45:10.711Z,86.71
2018-01-18T13:47:45.702Z,87.26
2018-01-18T13:52:55.254Z,87.21
2018-01-18T13:55:30.134Z,86.84
2018-01-18T13:58:05.303Z,86.30
2018-01-18T14:00:39.858Z,86.44
2018-01-18T14:03:15.282Z,87.14
2018-01-18T14:05:50.379Z,88.17
2018-01-18T14:08:25.433Z,89.09
2018-01-18T14:11:00.146Z,89.53
2018-01-18T14:13:35.434Z,89.45
2018-01-18T14:16:10.418Z,89.25
2018-01-18T14:18:45.502Z,88.53
2018-01-18T14:21:20.547Z,88.17
2018-01-18T14:23:55.971Z,87.52
2018-01-18T14:26:30.914Z,87.86
2018-01-18T14:29:06.338Z,86.71
2018-01-18T14:31:41.327Z,86.97
2018-01-18T14:34:16.328Z,87.29
2018-01-18T14:36:51.166Z,87.13
2018-01-18T14:39:25.758Z,86.71
2018-01-18T14:42:00.822Z,85.91
2018-01-18T14:44:35.954Z,85.89
2018-01-18T14:47:10.704Z,85.83
2018-01-18T14:49:45.822Z,85.79
2018-01-18T14:52:20.483Z,86.32
2018-01-18T14:54:55.766Z,86.29
2018-01-18T14:57:30.619Z,86.09
2018-01-18T15:00:05.053Z,86.34
2018-01-18T15:02:39.574Z,86.28
2018-01-18T15:05:14.489Z,86.31
2018-01-18T15:07:49.582Z,86.36
2018-01-18T15:10:24.258Z,86.60
2018-01-18T15:12:59.150Z,86.68
2018-01-18T15:15:34.574Z,87.00
2018-01-18T15:18:09.383Z,87.72
2018-01-18T15:20:43.734Z,88.11
2018-01-18T15:23:18.913Z,88.20
2018-01-18T15:25:54.204Z,88.34
2018-01-18T15:28:29.718Z,88.65
2018-01-18T15:31:04.804Z,88.87
2018-01-18T15:33:39.826Z,89.41
2018-01-18T15:36:14.715Z,90.14
2018-01-18T15:38:49.867Z,90.02
2018-01-18T15:41:24.849Z,90.05
2018-01-18T15:43:59.961Z,90.01
2018-01-18T15:46:34.945Z,90.36
2018-01-18T15:49:10.242Z,89.95
2018-01-18T15:51:46.061Z,89.69
2018-01-18T15:54:20.877Z,89.74
2018-01-18T15:56:55.923Z,89.81
2018-01-18T15:59:30.642Z,89.98
2018-01-18T16:02:05.759Z,90.44
2018-01-18T16:04:40.775Z,90.86
2018-01-18T16:07:15.699Z,91.36
2018-01-18T16:09:50.482Z,91.79
2018-01-18T16:12:25.617Z,91.90
2018-01-18T16:15:00.982Z,92.16
2018-01-18T16:17:36.209Z,92.41
2018-01-18T16:20:11.158Z,92.21
2018-01-18T16:22:46.219Z,92.03
2018-01-18T16:25:20.805Z,91.89
2018-01-18T16:27:55.807Z,91.97
2018-01-18T16:30:30.774Z,91.87
2018-01-18T16:33:05.806Z,91.92
2018-01-18T16:38:40.815Z,92.23
2018-01-18T16:41:16.036Z,91.95
2018-01-18T16:43:51.471Z,91.78
2018-01-18T16:46:25.971Z,91.39
2018-01-18T16:49:01.135Z,91.54
2018-01-18T16:51:36.400Z,91.67
2018-01-18T16:54:11.756Z,91.83
2018-01-18T16:56:46.436Z,91.96
2018-01-18T16:59:21.358Z,91.96
2018-01-18T17:01:56.648Z,92.23
2018-01-18T17:04:32.036Z,92.33
2018-01-18T17:07:06.954Z,92.29
2018-01-18T17:09:41.563Z,92.44
2018-01-18T17:12:16.352Z,92.50
2018-01-18T17:14:51.198Z,92.35
2018-01-18T17:17:26.205Z,92.61
2018-01-18T17:20:01.231Z,93.41
2018-01-18T17:22:36.111Z,93.73
2018-01-18T17:25:11.275Z,94.19
2018-01-18T17:27:46.396Z,94.62
2018-01-18T17:30:21.563Z,94.76
2018-01-18T17:32:56.332Z,94.42
2018-01-18T17:35:31.039Z,94.62
2018-01-18T17:38:06.274Z,94.69
2018-01-18T17:40:40.957Z,94.75
2018-01-18T17:43:16.092Z,94.56
2018-01-18T17:45:51.220Z,94.57
2018-01-18T17:48:25.986Z,94.75
2018-01-18T17:51:01.248Z,94.16
2018-01-18T17:53:36.136Z,93.69
2018-01-18T17:56:11.292Z,93.64
2018-01-18T17:58:46.419Z,93.45
2018-01-18T18:01:21.299Z,93.27
2018-01-18T18:03:56.348Z,93.24
2018-01-18T18:06:31.285Z,93.16
2018-01-18T18:09:05.914Z,93.10
2018-01-18T18:11:41.051Z,92.84
2018-01-18T18:14:16.092Z,92.67
2018-01-18T18:16:51.162Z,92.65
2018-01-18T18:19:26.224Z,92.44
2018-01-18T18:22:01.312Z,92.23
2018-01-18T18:24:36.196Z,91.84
2018-01-18T18:27:11.142Z,91.11
2018-01-18T18:29:46.527Z,90.71
2018-01-18T18:32:21.483Z,90.58
2018-01-18T18:34:56.394Z,90.08
2018-01-18T18:37:31.919Z,90.16
2018-01-18T18:40:06.476Z,89.96
2018-01-18T18:42:41.613Z,89.72
2018-01-18T18:45:16.246Z,89.55
2018-01-18T18:47:51.596Z,89.56
2018-01-18T18:50:25.980Z,89.15
2018-01-18T18:53:01.432Z,89.11
2018-01-18T18:55:36.295Z,88.83
2018-01-18T18:58:11.311Z,88.86
2018-01-18T19:00:46.552Z,88.88
2018-01-18T19:03:21.223Z,88.84
2018-01-18T19:05:56.497Z,88.89
2018-01-18T19:08:31.319Z,88.84
2018-01-18T19:11:06.362Z,89.14
2018-01-18T19:13:41.291Z,89.17
2018-01-18T19:16:16.298Z,89.57
2018-01-18T19:18:51.585Z,89.57
2018-01-18T19:21:27.242Z,89.64
2018-01-18T19:24:02.531Z,89.84
2018-01-18T19:26:37.684Z,89.96
2018-01-18T19:29:12.400Z,89.80
2018-01-18T19:31:47.410Z,89.62
2018-01-18T19:34:22.620Z,89.79
2018-01-18T19:36:57.788Z,89.93
2018-01-18T19:39:32.371Z,89.77
2018-01-18T19:42:07.289Z,89.94
2018-01-18T19:44:42.422Z,90.19
2018-01-18T19:47:17.487Z,90.40
2018-01-18T19:49:52.868Z,90.41
2018-01-18T19:52:27.538Z,90.61
2018-01-18T19:55:02.711Z,90.81
2018-01-18T19:57:38.176Z,90.86
2018-01-18T20:00:12.727Z,90.83
2018-01-18T20:02:47.780Z,90.58
2018-01-18T20:05:22.754Z,90.49
2018-01-18T20:07:57.909Z,90.49
2018-01-18T20:10:32.887Z,90.61
2018-01-18T20:13:07.778Z,90.53
2018-01-18T20:15:44.735Z,90.49
2018-01-18T20:18:19.886Z,90.28
2018-01-18T20:20:55.016Z,90.31
2018-01-18T20:23:29.789Z,90.24
2018-01-18T20:26:04.549Z,89.75
2018-01-18T20:28:39.681Z,89.77
2018-01-18T20:31:14.617Z,89.52
2018-01-18T20:33:49.188Z,89.49
2018-01-18T20:36:24.442Z,89.42
2018-01-18T20:38:59.720Z,89.00
2018-01-18T20:41:34.473Z,88.80
2018-01-18T20:44:09.601Z,89.03
2018-01-18T20:46:44.483Z,89.02
2018-01-18T20:49:19.335Z,89.17
2018-01-18T20:51:54.387Z,89.04
2018-01-18T20:54:29.578Z,89.22
2018-01-18T20:57:03.995Z,89.20
2018-01-18T20:59:39.112Z,89.29
2018-01-18T21:02:14.007Z,89.32
2018-01-18T21:04:48.990Z,89.45
2018-01-18T21:07:23.761Z,89.46
2018-01-18T21:09:59.411Z,89.39
2018-01-18T21:12:34.652Z,89.30
2018-01-18T21:15:09.315Z,89.33
2018-01-18T21:17:44.934Z,89.39
2018-01-18T21:20:20.067Z,89.51
2018-01-18T21:22:54.883Z,89.57
2018-01-18T21:25:29.720Z,89.61
2018-01-18T21:28:04.760Z,89.62
2018-01-18T21:30:40.388Z,89.53
2018-01-18T21:33:15.857Z,89.61
2018-01-18T21:35:50.723Z,89.80
2018-01-18T21:38:25.268Z,89.95
2018-01-18T21:41:00.654Z,90.08
2018-01-18T21:43:35.620Z,90.27
2018-01-18T21:46:12.637Z,90.44
2018-01-18T21:48:47.718Z,90.40
2018-01-18T21:51:22.775Z,90.37
2018-01-18T21:53:58.089Z,90.56
2018-01-18T21:56:33.256Z,90.75
2018-01-18T21:59:08.751Z,90.95
2018-01-18T22:01:43.772Z,91.06
2018-01-18T22:04:18.584Z,91.21
2018-01-18T22:06:53.151Z,91.27
2018-01-18T22:09:28.223Z,91.10
2018-01-18T22:12:03.066Z,91.05
2018-01-18T22:14:37.914Z,91.20
2018-01-18T22:17:12.796Z,91.26
2018-01-18T22:19:47.888Z,91.30
2018-01-18T22:22:23.011Z,91.28
2018-01-18T22:24:58.235Z,91.23
2018-01-18T22:27:33.032Z,91.28
2018-01-18T22:30:08.219Z,91.24
2018-01-18T22:32:43.272Z,91.01
2018-01-18T22:35:18.304Z,91.00
2018-01-18T22:37:53.233Z,90.96
2018-01-18T22:40:28.069Z,90.96
2018-01-18T22:43:03.064Z,90.97
2018-01-18T22:45:37.950Z,90.79
2018-01-18T22:48:13.035Z,90.77
2018-01-18T22:50:47.816Z,90.63
2018-01-18T22:53:22.996Z,91.19
2018-01-18T22:55:58.076Z,91.44
2018-01-18T22:58:33.210Z,91.72
2018-01-18T23:01:08.104Z,91.98
2018-01-18T23:03:43.067Z,92.12
2018-01-18T23:06:17.826Z,91.97
2018-01-18T23:08:52.849Z,91.91
2018-01-18T23:11:27.493Z,92.14
2018-01-18T23:14:02.398Z,92.38
2018-01-18T23:16:37.211Z,92.29
2018-01-18T23:19:12.260Z,92.17
2018-01-18T23:21:47.308Z,92.02
2018-01-18T23:24:22.337Z,92.16
2018-01-18T23:26:57.209Z,92.10
2018-01-18T23:29:32.113Z,92.19
2018-01-18T23:32:07.159Z,92.12
2018-01-18T23:34:41.878Z,92.01
2018-01-18T23:37:16.971Z,91.97
2018-01-18T23:39:52.195Z,91.79
2018-01-18T23:42:26.839Z,91.92
2018-01-18T23:45:02.201Z,91.87
2018-01-18T23:47:37.179Z,92.12
2018-01-18T23:50:12.107Z,92.22
2018-01-18T23:52:47.404Z,92.51
2018-01-18T23:55:22.054Z,92.15
2018-01-18T23:57:57.023Z,91.90
